Marblemount, WA

7:38 AM PST on November 18, 2017 (GMT -0800)
Corkindale, WA USA | | Change Station
Active Advisory: Winter Storm Watch

Elev 292 ft 48.51 °N, 121.48 °W | Updated 21 seconds ago

Overcast
Overcast
37.6 °F
Feels Like 38 °F
N
0.0
Wind Variable Wind from SW

Today
High -- | Low -- °F
--% Chance of Precip.
Yesterday
High -- | Low -- °F
Precip. -- in
Pressure 30.30 in
Visibility 10.0 miles
Clouds Few 3000 ft
Mostly Cloudy 4200 ft
Overcast 5000 ft
Windchill 38 °F
Dew Point 15 °F
Humidity 39%
Rainfall 0.02 in
Snow Depth Not available.
7:18 AM 4:22 PM
New Moon, 0% visible
METAR KAWO 181456Z AUTO 13010KT 10SM FEW030 BKN042 OVC050 08/04 A3029 RMK AO2 SLP260 T00780039 57001
Pressure 30.30 in
Visibility 10.0 miles
Clouds Few 3000 ft
Mostly Cloudy 4200 ft
Overcast 5000 ft
Windchill 38 °F
Dew Point 15 °F
Humidity 39%
Rainfall 0.02 in
Snow Depth Not available.
7:18 AM 4:22 PM
New Moon, 0% visible
METAR KAWO 181456Z AUTO 13010KT 10SM FEW030 BKN042 OVC050 08/04 A3029 RMK AO2 SLP260 T00780039 57001

Get Your Daily Forecast Email!

Thanks for signing up!

Be on the lookout for a verification email in your inbox.

You'll start receiving severe weather alerts in your inbox..

×

10-Day Weather Forecast

Almanac

Astronomy

Nov. 18, 2017 Rise Set
Actual Time
Civil Twilight
Nautical Twilight
Astronomical Twilight
Moon
Length of Visible Light
Length of Day
Tomorrow will be .
, % of the Moon is Illuminated

Today's Extremes

State Highs State Lows

Community

WunderPhotos

Category 6

Welcome to Category 6. This is the collective home for Weather Underground's featured writeups by Dr. Jeff Masters (right), Bob Henson (left), Chris Burt, and other regular contributors.

Nearby

Air Quality

  Air Quality AQ Index Pollutant
Not available.

Snow Depth

Station Depth Elevation

Earthquake Activity

City Distance Mag. Time & Date
Minimum magnitude displayed is 2.5.

Coastal Water Temperatures

Place Temperature

Stations

Nearby Weather Stations

Station Location Temp. Windchill Dew Point Humidity Wind Precip. Elev Updated Type
                   

Watches & Warnings

Winter Storm Watch
Issued: 5:50 AM PST Nov. 18, 2017 – National Weather Service

... Winter Storm Watch remains in effect from late tonight through
Sunday afternoon above 3500 feet...

* what... heavy snow possible. Plan on difficult travel
conditions. Total snow accumulations of 8 to 13 inches are
possible.

* Where... Cascade mountains of Whatcom and Skagit counties,
including The Mount Baker ski area.

* When... from late tonight through Sunday afternoon. The
heaviest snow is expected to occur during the day Sunday.

* Additional details... significant reductions in visibility are
possible.

Precautionary/preparedness actions...

A Winter Storm Watch means there is potential for significant
snow, sleet or ice accumulations that may impact travel. Continue
to monitor the latest forecasts.